createdAt,value
2018-09-11T00:00:47.122Z,-75
2018-09-11T00:01:46.995Z,-76
2018-09-11T00:02:47.131Z,-75
2018-09-11T00:03:47.019Z,-75
2018-09-11T00:04:47.116Z,-75
2018-09-11T00:05:46.992Z,-74
2018-09-11T00:06:47.117Z,-75
2018-09-11T00:07:46.997Z,-75
2018-09-11T00:08:47.137Z,-75
2018-09-11T00:09:47.002Z,-74
2018-09-11T00:10:47.116Z,-75
2018-09-11T00:11:47.002Z,-74
2018-09-11T00:12:47.121Z,-74
2018-09-11T00:13:47.026Z,-75
2018-09-11T00:14:47.124Z,-74
2018-09-11T00:15:47.003Z,-74
2018-09-11T00:16:47.137Z,-74
2018-09-11T00:17:47.009Z,-74
2018-09-11T00:18:47.149Z,-74
2018-09-11T00:19:47.007Z,-74
2018-09-11T00:20:47.125Z,-74
2018-09-11T00:21:47.009Z,-74
2018-09-11T00:23:47.035Z,-74
2018-09-11T00:24:47.128Z,-74
2018-09-11T00:25:47.014Z,-75
2018-09-11T00:26:47.127Z,-74
2018-09-11T00:27:47.014Z,-74
2018-09-11T00:28:47.163Z,-75
2018-09-11T00:29:47.017Z,-74
2018-09-11T00:30:47.135Z,-74
2018-09-11T00:31:47.018Z,-74
2018-09-11T00:32:47.138Z,-75
2018-09-11T00:33:47.045Z,-76
2018-09-11T00:34:47.141Z,-74
2018-09-11T00:35:47.023Z,-74
2018-09-11T00:36:47.137Z,-74
2018-09-11T00:37:47.037Z,-74
2018-09-11T00:38:47.165Z,-74
2018-09-11T00:39:47.024Z,-74
2018-09-11T00:40:47.151Z,-74
2018-09-11T00:41:47.026Z,-75
2018-09-11T00:42:47.147Z,-74
2018-09-11T00:43:47.053Z,-74
2018-09-11T00:44:47.148Z,-74
2018-09-11T00:45:47.035Z,-74
2018-09-11T00:46:47.147Z,-74
2018-09-11T00:47:47.037Z,-73
2018-09-11T00:48:47.233Z,-75
2018-09-11T00:49:47.033Z,-75
2018-09-11T00:50:47.155Z,-75
2018-09-11T00:51:47.075Z,-76
2018-09-11T00:52:47.154Z,-75
2018-09-11T00:53:47.041Z,-75
2018-09-11T00:54:47.181Z,-75
2018-09-11T00:55:47.040Z,-75
2018-09-11T00:56:47.158Z,-75
2018-09-11T00:57:47.040Z,-75
2018-09-11T00:58:47.163Z,-74
2018-09-11T00:59:47.070Z,-74
2018-09-11T01:00:47.161Z,-76
2018-09-11T01:01:47.045Z,-76
2018-09-11T01:02:47.164Z,-76
2018-09-11T01:03:47.047Z,-75
2018-09-11T01:04:47.189Z,-75
2018-09-11T01:05:47.050Z,-75
2018-09-11T01:06:47.166Z,-75
2018-09-11T01:07:47.053Z,-75
2018-09-11T01:08:47.204Z,-75
2018-09-11T01:09:47.098Z,-75
2018-09-11T01:10:47.173Z,-75
2018-09-11T01:11:47.063Z,-75
2018-09-11T01:12:47.173Z,-75
2018-09-11T01:13:47.058Z,-75
2018-09-11T01:14:47.199Z,-75
2018-09-11T01:15:47.059Z,-75
2018-09-11T01:16:47.180Z,-75
2018-09-11T01:17:47.064Z,-76
2018-09-11T01:18:47.179Z,-75
2018-09-11T01:19:47.093Z,-76
2018-09-11T01:20:47.182Z,-76
2018-09-11T01:21:47.062Z,-76
2018-09-11T01:22:47.182Z,-74
2018-09-11T01:23:47.069Z,-74
2018-09-11T01:24:47.210Z,-74
2018-09-11T01:25:47.070Z,-75
2018-09-11T01:26:47.245Z,-75
2018-09-11T01:27:47.070Z,-75
2018-09-11T01:28:47.185Z,-75
2018-09-11T01:29:47.094Z,-80
2018-09-11T01:30:47.188Z,-77
2018-09-11T01:31:47.073Z,-77
2018-09-11T01:32:47.195Z,-77
2018-09-11T01:33:47.075Z,-77
2018-09-11T01:34:47.217Z,-77
2018-09-11T01:35:47.094Z,-77
2018-09-11T01:36:47.193Z,-77
2018-09-11T01:37:47.079Z,-77
2018-09-11T01:38:47.193Z,-77
2018-09-11T01:39:47.103Z,-77
2018-09-11T01:40:47.200Z,-77
2018-09-11T01:41:47.083Z,-77
2018-09-11T01:42:47.203Z,-77
2018-09-11T01:43:47.085Z,-77
2018-09-11T01:44:47.229Z,-77
2018-09-11T01:45:47.085Z,-77
2018-09-11T01:46:47.206Z,-76
2018-09-11T01:47:47.089Z,-75
2018-09-11T01:48:47.208Z,-76
2018-09-11T01:49:47.116Z,-77
2018-09-11T01:50:47.277Z,-75
2018-09-11T01:51:47.094Z,-75
2018-09-11T01:52:47.211Z,-76
2018-09-11T01:53:47.093Z,-75
2018-09-11T01:54:47.238Z,-75
2018-09-11T01:55:47.095Z,-75
2018-09-11T01:56:47.218Z,-75
2018-09-11T01:57:47.098Z,-75
2018-09-11T01:58:47.211Z,-74
2018-09-11T01:59:47.134Z,-74
2018-09-11T02:00:47.219Z,-74
2018-09-11T02:01:47.101Z,-74
2018-09-11T02:02:47.223Z,-73
2018-09-11T02:03:47.101Z,-73
2018-09-11T02:04:47.265Z,-74
2018-09-11T02:05:47.112Z,-78
2018-09-11T02:06:47.225Z,-77
2018-09-11T02:07:47.108Z,-77
2018-09-11T02:08:47.230Z,-77
2018-09-11T02:09:47.106Z,-77
2018-09-11T02:10:47.249Z,-77
2018-09-11T02:11:47.111Z,-77
2018-09-11T02:12:47.229Z,-77
2018-09-11T02:13:47.111Z,-77
2018-09-11T02:14:47.230Z,-77
2018-09-11T02:15:47.136Z,-77
2018-09-11T02:16:47.233Z,-77
2018-09-11T02:17:47.116Z,-77
2018-09-11T02:18:47.241Z,-77
2018-09-11T02:19:47.120Z,-77
2018-09-11T02:20:47.279Z,-76
2018-09-11T02:21:47.120Z,-76
2018-09-11T02:22:47.237Z,-76
2018-09-11T02:23:47.127Z,-77
2018-09-11T02:24:47.240Z,-76
2018-09-11T02:25:47.148Z,-77
2018-09-11T02:26:47.245Z,-75
2018-09-11T02:27:47.125Z,-76
2018-09-11T02:28:47.239Z,-76
2018-09-11T02:29:47.126Z,-75
2018-09-11T02:30:47.272Z,-76
2018-09-11T02:31:47.134Z,-75
2018-09-11T02:32:47.249Z,-75
2018-09-11T02:33:47.132Z,-76
2018-09-11T02:34:47.253Z,-76
2018-09-11T02:35:47.217Z,-76
2018-09-11T02:36:47.251Z,-76
2018-09-11T02:37:47.136Z,-76
2018-09-11T02:38:47.255Z,-76
2018-09-11T02:39:47.136Z,-76
2018-09-11T02:40:47.277Z,-76
2018-09-11T02:41:47.140Z,-75
2018-09-11T02:42:47.255Z,-75
2018-09-11T02:43:47.139Z,-75
2018-09-11T02:44:47.262Z,-75
2018-09-11T02:45:47.169Z,-75
2018-09-11T02:46:47.274Z,-75
2018-09-11T02:47:47.143Z,-75
2018-09-11T02:48:47.260Z,-75
2018-09-11T02:49:47.144Z,-77
2018-09-11T02:50:47.290Z,-76
2018-09-11T02:51:47.146Z,-78
2018-09-11T02:52:47.317Z,-77
2018-09-11T02:53:47.148Z,-76
2018-09-11T02:54:47.267Z,-76
2018-09-11T02:55:47.182Z,-76
2018-09-11T02:56:47.267Z,-76
2018-09-11T02:57:47.154Z,-76
2018-09-11T02:58:47.271Z,-76
2018-09-11T02:59:47.156Z,-76
2018-09-11T03:00:47.299Z,-74
2018-09-11T03:01:47.156Z,-74
2018-09-11T03:02:47.277Z,-74
2018-09-11T03:03:47.157Z,-74
2018-09-11T03:04:47.275Z,-74
2018-09-11T03:05:47.184Z,-76
2018-09-11T03:06:47.332Z,-77
2018-09-11T03:07:47.164Z,-77
2018-09-11T03:08:47.279Z,-77
2018-09-11T03:09:47.162Z,-77
2018-09-11T03:10:47.308Z,-77
2018-09-11T03:11:47.165Z,-77
2018-09-11T03:12:47.288Z,-77
2018-09-11T03:13:47.166Z,-77
2018-09-11T03:14:47.286Z,-77
2018-09-11T03:15:47.198Z,-77
2018-09-11T03:16:47.288Z,-77
2018-09-11T03:17:47.171Z,-77
2018-09-11T03:18:47.424Z,-77
2018-09-11T03:19:47.174Z,-77
2018-09-11T03:20:47.294Z,-77
2018-09-11T03:21:47.199Z,-77
2018-09-11T03:22:47.293Z,-77
2018-09-11T03:23:47.177Z,-76
2018-09-11T03:24:47.300Z,-76
2018-09-11T03:25:47.178Z,-76
2018-09-11T03:26:47.323Z,-76
2018-09-11T03:27:47.184Z,-76
2018-09-11T03:28:47.332Z,-76
2018-09-11T03:29:47.181Z,-77
2018-09-11T03:30:47.389Z,-77
2018-09-11T03:31:47.209Z,-76
2018-09-11T03:32:47.305Z,-76
2018-09-11T03:33:47.186Z,-77
2018-09-11T03:34:47.304Z,-76
2018-09-11T03:35:47.214Z,-76
2018-09-11T03:36:47.405Z,-75
2018-09-11T03:37:47.188Z,-76
2018-09-11T03:38:47.347Z,-76
2018-09-11T03:39:49.911Z,-76
2018-09-11T03:40:47.311Z,-75
2018-09-11T03:41:47.217Z,-75
2018-09-11T03:42:47.312Z,-73
2018-09-11T03:43:47.193Z,-74
2018-09-11T03:44:47.331Z,-74
2018-09-11T03:45:47.196Z,-74
2018-09-11T03:46:47.371Z,-74
2018-09-11T03:47:47.198Z,-74
2018-09-11T03:48:47.318Z,-74
2018-09-11T03:49:47.200Z,-74
2018-09-11T03:50:47.322Z,-76
2018-09-11T03:51:47.228Z,-76
2018-09-11T03:52:47.325Z,-76
2018-09-11T03:53:47.205Z,-76
2018-09-11T03:54:47.331Z,-76
2018-09-11T03:55:47.206Z,-76
2018-09-11T03:56:47.352Z,-76
2018-09-11T03:57:47.205Z,-77
2018-09-11T03:58:47.333Z,-76
2018-09-11T03:59:47.210Z,-76
2018-09-11T04:00:47.355Z,-76
2018-09-11T04:01:47.235Z,-76
2018-09-11T04:02:47.327Z,-76
2018-09-11T04:03:47.213Z,-76
2018-09-11T04:04:47.331Z,-75
2018-09-11T04:05:47.220Z,-75
2018-09-11T04:06:47.362Z,-75
2018-09-11T04:07:47.230Z,-75
2018-09-11T04:08:47.332Z,-75
2018-09-11T04:09:47.217Z,-75
2018-09-11T04:10:47.341Z,-75
2018-09-11T04:11:47.245Z,-75
2018-09-11T04:12:47.362Z,-75
2018-09-11T04:13:47.224Z,-76
2018-09-11T04:14:47.343Z,-75
2018-09-11T04:15:47.224Z,-75
2018-09-11T04:16:47.368Z,-75
2018-09-11T04:17:48.433Z,-76
2018-09-11T04:18:47.599Z,-76
2018-09-11T04:19:47.404Z,-74
2018-09-11T04:20:47.412Z,-74
2018-09-11T04:21:47.273Z,-74
2018-09-11T04:22:47.349Z,-74
2018-09-11T04:23:47.233Z,-74
2018-09-11T04:24:47.351Z,-74
2018-09-11T04:25:47.315Z,-75
2018-09-11T04:26:47.350Z,-74
2018-09-11T04:27:47.259Z,-74
2018-09-11T04:28:47.351Z,-74
2018-09-11T04:29:47.237Z,-75
2018-09-11T04:30:47.359Z,-75
2018-09-11T04:31:47.237Z,-74
2018-09-11T04:32:47.394Z,-74
2018-09-11T04:33:47.241Z,-77
2018-09-11T04:34:47.364Z,-76
2018-09-11T04:35:47.243Z,-76
2018-09-11T04:36:47.374Z,-76
2018-09-11T04:37:47.268Z,-82
2018-09-11T04:38:47.362Z,-76
2018-09-11T04:39:47.244Z,-74
2018-09-11T04:40:47.364Z,-74
2018-09-11T04:41:47.250Z,-74
2018-09-11T04:43:47.254Z,-74
2018-09-11T04:44:47.369Z,-74
2018-09-11T04:45:47.254Z,-74
2018-09-11T04:46:47.371Z,-74
2018-09-11T04:47:47.282Z,-74
2018-09-11T04:48:47.371Z,-74
2018-09-11T04:49:47.257Z,-74
2018-09-11T04:50:47.375Z,-74
2018-09-11T04:51:47.258Z,-74
2018-09-11T04:52:47.401Z,-74
2018-09-11T04:53:47.257Z,-74
2018-09-11T04:54:47.378Z,-74
2018-09-11T04:55:47.259Z,-74
2018-09-11T04:56:47.377Z,-74
2018-09-11T04:57:47.287Z,-74
2018-09-11T04:58:47.382Z,-74
2018-09-11T04:59:47.265Z,-74
2018-09-11T05:00:47.413Z,-74
2018-09-11T05:01:47.269Z,-74
2018-09-11T05:02:47.414Z,-74
2018-09-11T05:03:47.381Z,-74
2018-09-11T05:04:47.396Z,-74
2018-09-11T05:05:47.269Z,-74
2018-09-11T05:06:47.406Z,-74
2018-09-11T05:07:47.297Z,-74
2018-09-11T05:08:47.391Z,-74
2018-09-11T05:09:47.275Z,-74
2018-09-11T05:10:47.395Z,-74
2018-09-11T05:11:47.280Z,-74
2018-09-11T05:12:47.414Z,-74
2018-09-11T05:13:47.275Z,-74
2018-09-11T05:14:47.396Z,-74
2018-09-11T05:15:47.278Z,-74
2018-09-11T05:16:47.399Z,-74
2018-09-11T05:17:47.312Z,-74
2018-09-11T05:18:47.400Z,-74
2018-09-11T05:19:47.286Z,-74
2018-09-11T05:20:47.398Z,-74
2018-09-11T05:21:47.285Z,-74
2018-09-11T05:22:47.436Z,-74
2018-09-11T05:23:47.286Z,-74
2018-09-11T05:24:47.405Z,-74
2018-09-11T05:25:47.290Z,-74
2018-09-11T05:26:47.407Z,-74
2018-09-11T05:27:47.313Z,-74
2018-09-11T05:28:47.413Z,-74
2018-09-11T05:29:47.291Z,-74
2018-09-11T05:30:47.420Z,-74
2018-09-11T05:31:47.314Z,-74
2018-09-11T05:32:47.473Z,-74
2018-09-11T05:33:47.327Z,-74
2018-09-11T05:34:47.431Z,-74
2018-09-11T05:35:47.298Z,-74
2018-09-11T05:36:47.413Z,-74
2018-09-11T05:37:47.344Z,-74
2018-09-11T05:38:47.415Z,-74
2018-09-11T05:39:47.300Z,-74
2018-09-11T05:40:47.417Z,-74
2018-09-11T05:41:47.304Z,-74
2018-09-11T05:42:47.420Z,-74
2018-09-11T05:43:47.329Z,-74
2018-09-11T05:44:47.424Z,-74
2018-09-11T05:45:47.307Z,-74
2018-09-11T05:46:47.431Z,-74
2018-09-11T05:47:47.318Z,-74
2018-09-11T05:48:47.452Z,-74
2018-09-11T05:49:47.311Z,-74
2018-09-11T05:50:47.430Z,-74
2018-09-11T05:51:47.312Z,-74
2018-09-11T05:52:47.431Z,-74
2018-09-11T05:53:47.338Z,-74
2018-09-11T05:54:47.431Z,-74
2018-09-11T05:55:47.318Z,-74
2018-09-11T05:56:47.431Z,-74
2018-09-11T05:57:47.319Z,-74
2018-09-11T05:58:47.460Z,-74
2018-09-11T05:59:47.320Z,-74
2018-09-11T06:00:47.437Z,-74
2018-09-11T06:01:47.321Z,-74
2018-09-11T06:02:47.448Z,-74
2018-09-11T06:03:47.349Z,-74
2018-09-11T06:04:47.438Z,-74
2018-09-11T06:05:47.450Z,-74
2018-09-11T06:06:47.453Z,-74
2018-09-11T06:07:47.326Z,-74
2018-09-11T06:08:47.471Z,-74
2018-09-11T06:09:47.333Z,-74
2018-09-11T06:10:47.444Z,-74
2018-09-11T06:11:47.330Z,-77
2018-09-11T06:12:47.447Z,-74
2018-09-11T06:13:47.358Z,-74
2018-09-11T06:14:47.447Z,-74
2018-09-11T06:15:47.333Z,-74
2018-09-11T06:16:47.452Z,-74
2018-09-11T06:17:47.335Z,-74
2018-09-11T06:18:47.492Z,-74
2018-09-11T06:19:47.338Z,-74
2018-09-11T06:20:47.456Z,-74
2018-09-11T06:21:47.339Z,-74
2018-09-11T06:22:47.457Z,-74
2018-09-11T06:23:47.365Z,-74
2018-09-11T06:24:47.467Z,-74
2018-09-11T06:25:47.381Z,-74
2018-09-11T06:26:47.463Z,-74
2018-09-11T06:27:47.344Z,-74
2018-09-11T06:28:47.487Z,-74
2018-09-11T06:29:47.449Z,-74
2018-09-11T06:30:47.809Z,-74
2018-09-11T06:31:50.149Z,-74
2018-09-11T06:32:47.465Z,-74
2018-09-11T06:33:47.374Z,-74
2018-09-11T06:34:47.466Z,-74
2018-09-11T06:35:47.353Z,-74
2018-09-11T06:36:47.471Z,-74
2018-09-11T06:37:47.356Z,-74
2018-09-11T06:38:47.500Z,-74
2018-09-11T06:39:47.358Z,-74
2018-09-11T06:40:47.479Z,-74
2018-09-11T06:41:47.358Z,-74
2018-09-11T06:42:47.472Z,-74
2018-09-11T06:43:47.404Z,-74
2018-09-11T06:44:47.698Z,-74
2018-09-11T06:45:47.372Z,-74
2018-09-11T06:46:47.479Z,-74
2018-09-11T06:47:47.363Z,-74
2018-09-11T06:48:47.480Z,-74
2018-09-11T06:49:47.391Z,-74
2018-09-11T06:50:47.483Z,-74
2018-09-11T06:51:47.368Z,-74
2018-09-11T06:52:47.487Z,-74
2018-09-11T06:53:47.369Z,-74
2018-09-11T06:54:47.760Z,-74
2018-09-11T06:55:47.371Z,-74
2018-09-11T06:56:47.496Z,-74
2018-09-11T06:57:47.372Z,-74
2018-09-11T06:58:47.492Z,-74
2018-09-11T06:59:47.396Z,-74
2018-09-11T07:00:47.500Z,-74
2018-09-11T07:01:47.428Z,-74
2018-09-11T07:02:47.495Z,-74
2018-09-11T07:03:47.378Z,-74
2018-09-11T07:04:47.518Z,-74
2018-09-11T07:05:47.384Z,-74
2018-09-11T07:06:47.496Z,-74
2018-09-11T07:07:47.384Z,-74
2018-09-11T07:08:47.498Z,-74
2018-09-11T07:09:47.408Z,-74
2018-09-11T07:10:47.499Z,-74
2018-09-11T07:11:47.387Z,-74
2018-09-11T07:12:47.517Z,-74
2018-09-11T07:13:47.387Z,-74
2018-09-11T07:14:47.773Z,-74
2018-09-11T07:15:47.389Z,-74
2018-09-11T07:16:47.505Z,-74
2018-09-11T07:17:47.390Z,-74
2018-09-11T07:18:47.767Z,-74
2018-09-11T07:19:47.465Z,-74
2018-09-11T07:20:47.795Z,-74
2018-09-11T07:21:47.545Z,-74
2018-09-11T07:22:47.515Z,-74
2018-09-11T07:23:47.480Z,-74
2018-09-11T07:24:47.594Z,-74
2018-09-11T07:25:47.419Z,-74
2018-09-11T07:26:47.714Z,-74
2018-09-11T07:27:50.146Z,-74
2018-09-11T07:28:47.676Z,-74
2018-09-11T07:29:47.429Z,-74
2018-09-11T07:30:47.522Z,-74
2018-09-11T07:31:47.404Z,-74
2018-09-11T07:32:47.523Z,-74
2018-09-11T07:33:47.406Z,-74
2018-09-11T07:34:47.552Z,-74
2018-09-11T07:35:47.407Z,-74
2018-09-11T07:36:47.526Z,-74
2018-09-11T07:37:47.468Z,-74
2018-09-11T07:38:47.528Z,-74
2018-09-11T07:39:47.437Z,-74
2018-09-11T07:40:47.531Z,-74
2018-09-11T07:41:47.415Z,-74
2018-09-11T07:42:47.533Z,-74
2018-09-11T07:43:47.417Z,-74
2018-09-11T07:44:47.558Z,-74
2018-09-11T07:45:47.416Z,-77
2018-09-11T07:46:47.540Z,-74
2018-09-11T07:47:47.419Z,-74
2018-09-11T07:48:47.539Z,-74
2018-09-11T07:49:47.446Z,-74
2018-09-11T07:50:47.540Z,-74
2018-09-11T07:51:47.423Z,-74
2018-09-11T07:52:47.610Z,-74
2018-09-11T07:53:47.424Z,-74
2018-09-11T07:54:47.569Z,-74
2018-09-11T07:55:47.425Z,-74
2018-09-11T07:56:47.546Z,-74
2018-09-11T07:57:47.535Z,-74
2018-09-11T07:58:47.549Z,-74
2018-09-11T07:59:47.468Z,-74
2018-09-11T08:00:47.611Z,-74
2018-09-11T08:01:47.446Z,-74
2018-09-11T08:02:47.553Z,-74
2018-09-11T08:03:47.441Z,-74
2018-09-11T08:04:47.554Z,-74
2018-09-11T08:05:47.459Z,-75
2018-09-11T08:06:47.558Z,-74
2018-09-11T08:07:47.438Z,-74
2018-09-11T08:08:47.560Z,-74
2018-09-11T08:09:47.441Z,-74
2018-09-11T08:10:47.585Z,-74
2018-09-11T08:11:47.445Z,-75
2018-09-11T08:12:50.294Z,-77
2018-09-11T08:13:47.444Z,-74
2018-09-11T08:14:47.894Z,-75
2018-09-11T08:15:47.469Z,-76
2018-09-11T08:16:47.567Z,-74
2018-09-11T08:17:47.479Z,-74
2018-09-11T08:18:47.567Z,-74
2018-09-11T08:19:47.512Z,-76
2018-09-11T08:20:47.594Z,-74
2018-09-11T08:21:47.452Z,-74
2018-09-11T08:22:47.571Z,-74
2018-09-11T08:23:47.452Z,-76
2018-09-11T08:24:47.571Z,-74
2018-09-11T08:25:47.527Z,-74
2018-09-11T08:26:47.757Z,-74
2018-09-11T08:27:47.455Z,-74
2018-09-11T08:28:47.575Z,-74
2018-09-11T08:29:47.459Z,-74
2018-09-11T08:30:47.603Z,-74
2018-09-11T08:31:47.461Z,-74
2018-09-11T08:32:47.579Z,-74
2018-09-11T08:33:47.463Z,-74
2018-09-11T08:34:47.577Z,-74
2018-09-11T08:35:47.488Z,-74
2018-09-11T08:36:47.584Z,-74
2018-09-11T08:37:47.466Z,-74
2018-09-11T08:38:47.586Z,-74
2018-09-11T08:39:47.469Z,-74
2018-09-11T08:40:47.612Z,-74
2018-09-11T08:41:47.473Z,-74
2018-09-11T08:42:47.590Z,-74
2018-09-11T08:43:47.470Z,-74
2018-09-11T08:44:47.591Z,-74
2018-09-11T08:45:47.540Z,-74
2018-09-11T08:46:47.814Z,-74
2018-09-11T08:47:47.476Z,-75
2018-09-11T08:48:47.591Z,-74
2018-09-11T08:49:47.477Z,-74
2018-09-11T08:50:47.620Z,-74
2018-09-11T08:51:47.479Z,-74
2018-09-11T08:52:47.688Z,-74
2018-09-11T08:53:47.482Z,-74
2018-09-11T08:54:47.608Z,-74
2018-09-11T08:55:47.510Z,-74
2018-09-11T08:56:47.608Z,-74
2018-09-11T08:57:47.486Z,-74
2018-09-11T08:58:47.605Z,-74
2018-09-11T08:59:47.487Z,-74
2018-09-11T09:00:47.635Z,-75
2018-09-11T09:01:47.490Z,-74
2018-09-11T09:02:47.603Z,-74
2018-09-11T09:03:47.498Z,-74
2018-09-11T09:04:47.608Z,-74
2018-09-11T09:05:47.516Z,-74
2018-09-11T09:06:47.611Z,-74
2018-09-11T09:07:47.494Z,-74
2018-09-11T09:08:47.613Z,-74
2018-09-11T09:09:47.496Z,-74
2018-09-11T09:10:47.637Z,-74
2018-09-11T09:11:47.530Z,-75
2018-09-11T09:12:47.616Z,-74
2018-09-11T09:13:47.499Z,-74
2018-09-11T09:14:47.626Z,-74
2018-09-11T09:15:47.502Z,-74
2018-09-11T09:16:47.643Z,-74
2018-09-11T09:17:47.505Z,-74
2018-09-11T09:18:47.623Z,-74
2018-09-11T09:19:47.505Z,-78
2018-09-11T09:20:47.732Z,-74
2018-09-11T09:21:47.534Z,-74
2018-09-11T09:22:47.627Z,-74
2018-09-11T09:23:50.235Z,-74
2018-09-11T09:24:47.633Z,-75
2018-09-11T09:25:47.513Z,-74
2018-09-11T09:26:47.660Z,-74
2018-09-11T09:27:47.514Z,-74
2018-09-11T09:28:47.631Z,-74
2018-09-11T09:29:47.517Z,-75
2018-09-11T09:30:47.634Z,-74
2018-09-11T09:31:47.543Z,-75
2018-09-11T09:32:47.640Z,-74
2018-09-11T09:33:47.519Z,-74
2018-09-11T09:34:47.643Z,-74
2018-09-11T09:35:47.523Z,-74
2018-09-11T09:36:47.718Z,-74
2018-09-11T09:37:47.523Z,-75
2018-09-11T09:38:47.639Z,-74
2018-09-11T09:39:47.526Z,-74
2018-09-11T09:40:47.651Z,-74
2018-09-11T09:41:47.554Z,-74
2018-09-11T09:42:47.647Z,-74
2018-09-11T09:43:47.533Z,-74
2018-09-11T09:44:47.652Z,-74
2018-09-11T09:45:47.535Z,-74
2018-09-11T09:46:47.674Z,-74
2018-09-11T09:47:47.534Z,-74
2018-09-11T09:48:47.656Z,-74
2018-09-11T09:49:47.535Z,-74
2018-09-11T09:50:47.796Z,-74
2018-09-11T09:51:47.561Z,-74
2018-09-11T09:52:47.680Z,-74
2018-09-11T09:53:47.539Z,-74
2018-09-11T09:54:47.656Z,-74
2018-09-11T09:55:47.547Z,-74
2018-09-11T09:56:47.688Z,-74
2018-09-11T09:57:47.541Z,-74
2018-09-11T09:58:47.661Z,-74
2018-09-11T09:59:47.543Z,-74
2018-09-11T10:00:47.660Z,-74
2018-09-11T10:01:47.575Z,-74
2018-09-11T10:02:47.663Z,-74
2018-09-11T10:03:47.548Z,-74
2018-09-11T10:04:47.760Z,-74
2018-09-11T10:05:47.552Z,-74
2018-09-11T10:06:47.694Z,-75
2018-09-11T10:07:47.554Z,-74
2018-09-11T10:08:47.804Z,-74
2018-09-11T10:09:47.555Z,-74
2018-09-11T10:10:47.675Z,-74
2018-09-11T10:11:47.636Z,-74
2018-09-11T10:12:47.669Z,-74
2018-09-11T10:13:47.561Z,-75
2018-09-11T10:14:47.677Z,-74
2018-09-11T10:15:47.559Z,-74
2018-09-11T10:16:47.700Z,-74
2018-09-11T10:17:47.561Z,-74
2018-09-11T10:18:47.681Z,-75
2018-09-11T10:19:47.563Z,-74
2018-09-11T10:20:47.683Z,-74
2018-09-11T10:21:47.606Z,-74
2018-09-11T10:22:47.684Z,-74
2018-09-11T10:23:47.574Z,-75
2018-09-11T10:24:47.688Z,-74
2018-09-11T10:25:47.567Z,-75
2018-09-11T10:26:47.693Z,-75
2018-09-11T10:27:47.595Z,-74
2018-09-11T10:28:47.685Z,-75
2018-09-11T10:29:47.573Z,-75
2018-09-11T10:30:47.692Z,-74
2018-09-11T10:31:47.574Z,-74
2018-09-11T10:32:47.716Z,-74
2018-09-11T10:33:47.695Z,-74
2018-09-11T10:34:47.700Z,-74
2018-09-11T10:35:47.579Z,-74
2018-09-11T10:36:47.753Z,-74
2018-09-11T10:37:47.606Z,-74
2018-09-11T10:38:47.703Z,-74
2018-09-11T10:39:47.583Z,-74
2018-09-11T10:40:47.702Z,-74
2018-09-11T10:41:47.585Z,-74
2018-09-11T10:42:47.734Z,-75
2018-09-11T10:43:47.590Z,-75
2018-09-11T10:44:47.826Z,-74
2018-09-11T10:45:47.589Z,-75
2018-09-11T10:46:47.707Z,-74
2018-09-11T10:47:47.616Z,-74
2018-09-11T10:48:47.911Z,-74
2018-09-11T10:49:47.593Z,-75
2018-09-11T10:50:47.708Z,-74
2018-09-11T10:51:47.676Z,-74
2018-09-11T10:52:47.742Z,-75
2018-09-11T10:53:47.597Z,-77
2018-09-11T10:54:47.715Z,-74
2018-09-11T10:55:47.842Z,-75
2018-09-11T10:56:47.716Z,-75
2018-09-11T10:57:47.624Z,-75
2018-09-11T10:58:50.792Z,-74
2018-09-11T10:59:47.849Z,-74
2018-09-11T11:00:47.895Z,-75
2018-09-11T11:01:47.774Z,-75
2018-09-11T11:02:47.918Z,-75
2018-09-11T11:03:47.609Z,-75
2018-09-11T11:04:47.726Z,-75
2018-09-11T11:05:47.608Z,-76
2018-09-11T11:06:47.729Z,-75
2018-09-11T11:07:47.638Z,-75
2018-09-11T11:08:47.749Z,-75
2018-09-11T11:09:47.612Z,-76
2018-09-11T11:10:47.729Z,-75
2018-09-11T11:11:47.613Z,-76
2018-09-11T11:12:47.760Z,-75
2018-09-11T11:13:47.615Z,-75
2018-09-11T11:14:47.734Z,-75
2018-09-11T11:15:47.622Z,-75
2018-09-11T11:16:47.737Z,-75
2018-09-11T11:17:47.648Z,-75
2018-09-11T11:18:47.739Z,-75
2018-09-11T11:19:47.621Z,-74
2018-09-11T11:20:47.748Z,-75
2018-09-11T11:21:47.625Z,-75
2018-09-11T11:22:47.776Z,-75
2018-09-11T11:23:47.627Z,-74
2018-09-11T11:24:47.740Z,-75
2018-09-11T11:25:47.627Z,-75
2018-09-11T11:26:47.828Z,-75
2018-09-11T11:27:47.653Z,-75
2018-09-11T11:28:47.743Z,-75
2018-09-11T11:29:47.631Z,-75
2018-09-11T11:30:47.749Z,-75
2018-09-11T11:31:47.634Z,-75
2018-09-11T11:32:47.795Z,-75
2018-09-11T11:33:47.636Z,-75
2018-09-11T11:34:47.758Z,-75
2018-09-11T11:35:47.636Z,-75
2018-09-11T11:36:48.100Z,-74
2018-09-11T11:37:47.639Z,-74
2018-09-11T11:38:47.784Z,-75
2018-09-11T11:39:47.643Z,-75
2018-09-11T11:40:47.760Z,-75
2018-09-11T11:41:47.690Z,-75
2018-09-11T11:42:47.853Z,-75
2018-09-11T11:43:47.669Z,-75
2018-09-11T11:44:47.765Z,-75
2018-09-11T11:45:47.650Z,-75
2018-09-11T11:46:47.766Z,-75
2018-09-11T11:47:47.647Z,-75
2018-09-11T11:48:47.821Z,-75
2018-09-11T11:49:47.657Z,-76
2018-09-11T11:50:47.767Z,-75
2018-09-11T11:51:47.651Z,-75
2018-09-11T11:52:47.770Z,-75
2018-09-11T11:53:47.678Z,-75
2018-09-11T11:54:47.827Z,-75
2018-09-11T11:55:47.656Z,-75
2018-09-11T11:56:47.776Z,-75
2018-09-11T11:57:47.660Z,-76
2018-09-11T11:58:47.799Z,-75
2018-09-11T11:59:47.664Z,-75
2018-09-11T12:00:47.783Z,-75
2018-09-11T12:01:47.665Z,-75
2018-09-11T12:02:47.792Z,-75
2018-09-11T12:03:47.689Z,-75
2018-09-11T12:04:47.782Z,-75
2018-09-11T12:05:47.668Z,-75
2018-09-11T12:06:47.781Z,-75
2018-09-11T12:07:47.843Z,-75
2018-09-11T12:08:47.809Z,-75
2018-09-11T12:09:47.670Z,-74
2018-09-11T12:10:47.789Z,-75
2018-09-11T12:11:47.671Z,-75
2018-09-11T12:12:47.789Z,-75
2018-09-11T12:13:47.703Z,-75
2018-09-11T12:14:47.792Z,-75
2018-09-11T12:15:47.674Z,-75
2018-09-11T12:16:47.856Z,-75
2018-09-11T12:17:47.677Z,-75
2018-09-11T12:18:47.826Z,-75
2018-09-11T12:19:47.680Z,-75
2018-09-11T12:20:47.809Z,-75
2018-09-11T12:21:47.680Z,-75
2018-09-11T12:22:47.806Z,-75
2018-09-11T12:23:47.711Z,-76
2018-09-11T12:24:47.798Z,-75
2018-09-11T12:25:47.685Z,-75
2018-09-11T12:26:47.905Z,-75
2018-09-11T12:27:47.710Z,-78
2018-09-11T12:28:47.828Z,-75
2018-09-11T12:29:47.692Z,-76
2018-09-11T12:30:47.807Z,-75
2018-09-11T12:31:47.692Z,-75
2018-09-11T12:32:47.810Z,-75
2018-09-11T12:33:47.719Z,-75
2018-09-11T12:34:47.814Z,-75
2018-09-11T12:35:47.696Z,-75
2018-09-11T12:36:47.814Z,-75
2018-09-11T12:37:47.699Z,-75
2018-09-11T12:38:47.842Z,-75
2018-09-11T12:39:47.699Z,-75
2018-09-11T12:40:47.819Z,-75
2018-09-11T12:41:47.701Z,-75
2018-09-11T12:42:47.825Z,-75
2018-09-11T12:43:47.730Z,-75
2018-09-11T12:44:47.828Z,-75
2018-09-11T12:45:47.779Z,-77
2018-09-11T12:46:48.327Z,-76
2018-09-11T12:47:47.852Z,-75
2018-09-11T12:48:48.277Z,-75
2018-09-11T12:49:47.709Z,-75
2018-09-11T12:50:47.830Z,-75
2018-09-11T12:51:47.711Z,-75
2018-09-11T12:52:47.835Z,-75
2018-09-11T12:53:47.715Z,-75
2018-09-11T12:54:47.855Z,-75
2018-09-11T12:55:47.719Z,-75
2018-09-11T12:56:47.840Z,-75
2018-09-11T12:57:47.724Z,-75
2018-09-11T12:58:47.839Z,-75
2018-09-11T12:59:47.746Z,-75
2018-09-11T13:00:47.835Z,-75
2018-09-11T13:01:47.722Z,-75
2018-09-11T13:02:47.840Z,-75
2018-09-11T13:03:47.726Z,-75
2018-09-11T13:04:47.866Z,-75
2018-09-11T13:05:47.723Z,-75
2018-09-11T13:06:47.842Z,-75
2018-09-11T13:07:47.726Z,-75
2018-09-11T13:08:47.847Z,-75
2018-09-11T13:09:47.754Z,-75
2018-09-11T13:10:47.904Z,-75
2018-09-11T13:11:47.735Z,-75
2018-09-11T13:12:47.848Z,-75
2018-09-11T13:13:47.733Z,-76
2018-09-11T13:14:47.879Z,-75
2018-09-11T13:15:47.735Z,-75
2018-09-11T13:16:47.854Z,-75
2018-09-11T13:17:47.742Z,-75
2018-09-11T13:18:47.850Z,-75
2018-09-11T13:19:47.763Z,-75
2018-09-11T13:20:47.855Z,-75
2018-09-11T13:21:47.745Z,-76
2018-09-11T13:22:47.860Z,-75
2018-09-11T13:23:47.741Z,-75
2018-09-11T13:24:47.889Z,-75
2018-09-11T13:25:47.744Z,-75
2018-09-11T13:26:47.865Z,-75
2018-09-11T13:27:47.751Z,-75
2018-09-11T13:28:47.864Z,-75
2018-09-11T13:29:47.774Z,-75
2018-09-11T13:30:47.869Z,-75
2018-09-11T13:31:47.751Z,-75
2018-09-11T13:32:47.874Z,-75
2018-09-11T13:33:47.815Z,-75
2018-09-11T13:34:47.896Z,-75
2018-09-11T13:35:47.753Z,-75
2018-09-11T13:36:47.873Z,-75
2018-09-11T13:37:47.758Z,-75
2018-09-11T13:38:47.877Z,-75
2018-09-11T13:39:47.783Z,-75
2018-09-11T13:40:47.877Z,-75
2018-09-11T13:41:47.759Z,-77
2018-09-11T13:42:47.878Z,-75
2018-09-11T13:43:47.762Z,-76
2018-09-11T13:44:47.903Z,-75
2018-09-11T13:45:47.763Z,-75
2018-09-11T13:46:47.886Z,-75
2018-09-11T13:47:47.849Z,-75
2018-09-11T13:48:47.885Z,-75